sensor_id;sensor_type;location;lat;lon;timestamp;temperature;humidity
57833;DHT22;43667;53.036;6.740;2022-09-23T00:00:19;9.40;99.90
57833;DHT22;43667;53.036;6.740;2022-09-23T00:02:45;9.30;99.90
57833;DHT22;43667;53.036;6.740;2022-09-23T00:05:13;9.30;99.90
57833;DHT22;43667;53.036;6.740;2022-09-23T00:07:39;9.30;99.90
57833;DHT22;43667;53.036;6.740;2022-09-23T00:10:05;9.30;99.90
57833;DHT22;43667;53.036;6.740;2022-09-23T00:12:32;9.30;99.90
57833;DHT22;43667;53.036;6.740;2022-09-23T00:14:57;9.30;99.90
57833;DHT22;43667;53.036;6.740;2022-09-23T00:17:23;9.30;99.90
57833;DHT22;43667;53.036;6.740;2022-09-23T00:19:49;9.20;99.90
57833;DHT22;43667;53.036;6.740;2022-09-23T00:22:15;9.20;99.90
57833;DHT22;43667;53.036;6.740;2022-09-23T00:24:40;9.20;99.90
57833;DHT22;43667;53.036;6.740;2022-09-23T00:27:06;9.20;99.90
57833;DHT22;43667;53.036;6.740;2022-09-23T00:29:32;9.20;99.90
57833;DHT22;43667;53.036;6.740;2022-09-23T00:31:57;9.20;99.90
57833;DHT22;43667;53.036;6.740;2022-09-23T00:34:23;9.20;99.90
57833;DHT22;43667;53.036;6.740;2022-09-23T00:36:49;9.20;99.90
57833;DHT22;43667;53.036;6.740;2022-09-23T00:39:14;9.20;99.90
57833;DHT22;43667;53.036;6.740;2022-09-23T00:41:40;9.20;99.90
57833;DHT22;43667;53.036;6.740;2022-09-23T00:47:43;9.10;99.90
57833;DHT22;43667;53.036;6.740;2022-09-23T00:52:37;9.10;99.90
57833;DHT22;43667;53.036;6.740;2022-09-23T00:55:08;9.10;99.90
57833;DHT22;43667;53.036;6.740;2022-09-23T00:57:35;9.10;99.90
57833;DHT22;43667;53.036;6.740;2022-09-23T01:00:04;9.10;99.90
57833;DHT22;43667;53.036;6.740;2022-09-23T01:02:31;9.00;99.90
57833;DHT22;43667;53.036;6.740;2022-09-23T01:04:57;9.10;99.90
57833;DHT22;43667;53.036;6.740;2022-09-23T01:07:23;9.00;99.90
57833;DHT22;43667;53.036;6.740;2022-09-23T01:09:49;9.00;99.90
57833;DHT22;43667;53.036;6.740;2022-09-23T01:12:40;9.00;99.90
57833;DHT22;43667;53.036;6.740;2022-09-23T01:26:28;9.00;99.90
57833;DHT22;43667;53.036;6.740;2022-09-23T01:31:59;8.90;99.90
57833;DHT22;43667;53.036;6.740;2022-09-23T01:34:41;8.90;99.90
57833;DHT22;43667;53.036;6.740;2022-09-23T01:37:16;8.90;99.90
57833;DHT22;43667;53.036;6.740;2022-09-23T01:39:54;8.90;99.90
57833;DHT22;43667;53.036;6.740;2022-09-23T01:42:56;8.90;99.90
57833;DHT22;43667;53.036;6.740;2022-09-23T01:45:33;8.90;99.90
57833;DHT22;43667;53.036;6.740;2022-09-23T01:48:12;8.90;99.90
57833;DHT22;43667;53.036;6.740;2022-09-23T01:50:54;8.90;99.90
57833;DHT22;43667;53.036;6.740;2022-09-23T01:53:32;8.90;99.90
57833;DHT22;43667;53.036;6.740;2022-09-23T01:56:06;8.90;99.90
57833;DHT22;43667;53.036;6.740;2022-09-23T01:58:41;8.90;99.90
57833;DHT22;43667;53.036;6.740;2022-09-23T02:01:18;8.90;99.90
57833;DHT22;43667;53.036;6.740;2022-09-23T02:03:52;8.90;99.90
57833;DHT22;43667;53.036;6.740;2022-09-23T02:06:29;8.90;99.90
57833;DHT22;43667;53.036;6.740;2022-09-23T02:09:01;8.90;99.90
57833;DHT22;43667;53.036;6.740;2022-09-23T02:11:31;8.90;99.90
57833;DHT22;43667;53.036;6.740;2022-09-23T02:16:46;8.90;99.90
57833;DHT22;43667;53.036;6.740;2022-09-23T02:19:26;8.90;99.90
57833;DHT22;43667;53.036;6.740;2022-09-23T02:21:57;8.90;99.90
57833;DHT22;43667;53.036;6.740;2022-09-23T02:24:30;8.80;99.90
57833;DHT22;43667;53.036;6.740;2022-09-23T02:29:53;8.90;99.90
57833;DHT22;43667;53.036;6.740;2022-09-23T02:32:34;8.90;99.90
57833;DHT22;43667;53.036;6.740;2022-09-23T02:35:14;8.80;99.90
57833;DHT22;43667;53.036;6.740;2022-09-23T02:40:40;8.80;99.90
57833;DHT22;43667;53.036;6.740;2022-09-23T02:46:08;8.80;99.90
57833;DHT22;43667;53.036;6.740;2022-09-23T02:48:49;8.70;99.90
57833;DHT22;43667;53.036;6.740;2022-09-23T02:51:15;8.70;99.90
57833;DHT22;43667;53.036;6.740;2022-09-23T02:53:42;8.70;99.90
57833;DHT22;43667;53.036;6.740;2022-09-23T02:56:14;8.60;99.90
57833;DHT22;43667;53.036;6.740;2022-09-23T02:58:40;8.60;99.90
57833;DHT22;43667;53.036;6.740;2022-09-23T03:01:12;8.60;99.90
57833;DHT22;43667;53.036;6.740;2022-09-23T03:04:15;8.60;99.90
57833;DHT22;43667;53.036;6.740;2022-09-23T03:09:33;8.50;99.90
57833;DHT22;43667;53.036;6.740;2022-09-23T03:12:12;8.50;99.90
57833;DHT22;43667;53.036;6.740;2022-09-23T03:17:21;8.40;99.90
57833;DHT22;43667;53.036;6.740;2022-09-23T03:20:07;8.40;99.90
57833;DHT22;43667;53.036;6.740;2022-09-23T03:22:43;8.40;99.90
57833;DHT22;43667;53.036;6.740;2022-09-23T03:25:15;8.40;99.90
57833;DHT22;43667;53.036;6.740;2022-09-23T03:27:44;8.30;99.90
57833;DHT22;43667;53.036;6.740;2022-09-23T03:30:10;8.30;99.90
57833;DHT22;43667;53.036;6.740;2022-09-23T03:32:38;8.30;99.90
57833;DHT22;43667;53.036;6.740;2022-09-23T03:35:07;8.30;99.90
57833;DHT22;43667;53.036;6.740;2022-09-23T03:37:57;8.20;99.90
57833;DHT22;43667;53.036;6.740;2022-09-23T03:40:36;8.20;99.90
57833;DHT22;43667;53.036;6.740;2022-09-23T03:43:06;8.20;99.90
57833;DHT22;43667;53.036;6.740;2022-09-23T03:45:33;8.10;99.90
57833;DHT22;43667;53.036;6.740;2022-09-23T03:47:59;8.10;99.90
57833;DHT22;43667;53.036;6.740;2022-09-23T03:50:25;8.10;99.90
57833;DHT22;43667;53.036;6.740;2022-09-23T03:52:51;8.10;99.90
57833;DHT22;43667;53.036;6.740;2022-09-23T03:55:18;8.10;99.90
57833;DHT22;43667;53.036;6.740;2022-09-23T03:57:44;8.00;99.90
57833;DHT22;43667;53.036;6.740;2022-09-23T04:00:10;8.00;99.90
57833;DHT22;43667;53.036;6.740;2022-09-23T04:02:36;8.00;99.90
57833;DHT22;43667;53.036;6.740;2022-09-23T04:05:03;8.00;99.90
57833;DHT22;43667;53.036;6.740;2022-09-23T04:07:28;7.90;99.90
57833;DHT22;43667;53.036;6.740;2022-09-23T04:09:54;7.90;99.90
57833;DHT22;43667;53.036;6.740;2022-09-23T04:12:20;7.90;99.90
57833;DHT22;43667;53.036;6.740;2022-09-23T04:14:45;7.90;99.90
57833;DHT22;43667;53.036;6.740;2022-09-23T04:17:11;7.90;99.90
57833;DHT22;43667;53.036;6.740;2022-09-23T04:19:37;7.90;99.90
57833;DHT22;43667;53.036;6.740;2022-09-23T04:22:03;7.80;99.90
57833;DHT22;43667;53.036;6.740;2022-09-23T04:24:30;7.80;99.90
57833;DHT22;43667;53.036;6.740;2022-09-23T04:26:56;7.80;99.90
57833;DHT22;43667;53.036;6.740;2022-09-23T04:29:23;7.80;99.90
57833;DHT22;43667;53.036;6.740;2022-09-23T04:31:49;7.80;99.90
57833;DHT22;43667;53.036;6.740;2022-09-23T04:34:15;7.80;99.90
57833;DHT22;43667;53.036;6.740;2022-09-23T04:36:42;7.80;99.90
57833;DHT22;43667;53.036;6.740;2022-09-23T04:39:09;7.80;99.90
57833;DHT22;43667;53.036;6.740;2022-09-23T04:41:35;7.70;99.90
57833;DHT22;43667;53.036;6.740;2022-09-23T04:44:01;7.70;99.90
57833;DHT22;43667;53.036;6.740;2022-09-23T04:46:26;7.70;99.90
57833;DHT22;43667;53.036;6.740;2022-09-23T04:48:52;7.70;99.90
57833;DHT22;43667;53.036;6.740;2022-09-23T04:51:20;7.70;99.90
57833;DHT22;43667;53.036;6.740;2022-09-23T04:53:48;7.70;99.90
57833;DHT22;43667;53.036;6.740;2022-09-23T04:56:23;7.70;99.90
57833;DHT22;43667;53.036;6.740;2022-09-23T04:58:49;7.70;99.90
57833;DHT22;43667;53.036;6.740;2022-09-23T05:01:17;7.70;99.90
57833;DHT22;43667;53.036;6.740;2022-09-23T05:03:44;7.70;99.90
57833;DHT22;43667;53.036;6.740;2022-09-23T05:06:11;7.70;99.90
57833;DHT22;43667;53.036;6.740;2022-09-23T05:08:39;7.70;99.90
57833;DHT22;43667;53.036;6.740;2022-09-23T05:11:05;7.70;99.90
57833;DHT22;43667;53.036;6.740;2022-09-23T05:13:31;7.70;99.90
57833;DHT22;43667;53.036;6.740;2022-09-23T05:16:03;7.70;99.90
57833;DHT22;43667;53.036;6.740;2022-09-23T05:18:33;7.80;99.90
57833;DHT22;43667;53.036;6.740;2022-09-23T05:21:00;7.70;99.90
57833;DHT22;43667;53.036;6.740;2022-09-23T05:23:26;7.70;99.90
57833;DHT22;43667;53.036;6.740;2022-09-23T05:25:57;7.70;99.90
57833;DHT22;43667;53.036;6.740;2022-09-23T05:28:24;7.80;99.90
57833;DHT22;43667;53.036;6.740;2022-09-23T05:30:52;7.80;99.90
57833;DHT22;43667;53.036;6.740;2022-09-23T05:33:18;7.70;99.90
57833;DHT22;43667;53.036;6.740;2022-09-23T05:35:47;7.70;99.90
57833;DHT22;43667;53.036;6.740;2022-09-23T05:38:13;7.70;99.90
57833;DHT22;43667;53.036;6.740;2022-09-23T05:40:41;7.70;99.90
57833;DHT22;43667;53.036;6.740;2022-09-23T05:43:07;7.70;99.90
57833;DHT22;43667;53.036;6.740;2022-09-23T05:45:33;7.80;99.90
57833;DHT22;43667;53.036;6.740;2022-09-23T05:48:00;7.70;99.90
57833;DHT22;43667;53.036;6.740;2022-09-23T05:50:25;7.70;99.90
57833;DHT22;43667;53.036;6.740;2022-09-23T05:52:51;7.80;99.90
57833;DHT22;43667;53.036;6.740;2022-09-23T05:55:16;7.80;99.90
57833;DHT22;43667;53.036;6.740;2022-09-23T05:57:42;7.80;99.90
57833;DHT22;43667;53.036;6.740;2022-09-23T06:00:08;7.90;99.90
57833;DHT22;43667;53.036;6.740;2022-09-23T06:02:34;7.90;99.90
57833;DHT22;43667;53.036;6.740;2022-09-23T06:05:00;8.00;99.90
57833;DHT22;43667;53.036;6.740;2022-09-23T06:07:26;8.00;99.90
57833;DHT22;43667;53.036;6.740;2022-09-23T06:09:52;8.10;99.90
57833;DHT22;43667;53.036;6.740;2022-09-23T06:12:18;8.20;99.90
57833;DHT22;43667;53.036;6.740;2022-09-23T06:14:44;8.30;99.90
57833;DHT22;43667;53.036;6.740;2022-09-23T06:17:09;8.30;99.90
57833;DHT22;43667;53.036;6.740;2022-09-23T06:19:35;8.40;99.90
57833;DHT22;43667;53.036;6.740;2022-09-23T06:22:01;8.50;99.90
57833;DHT22;43667;53.036;6.740;2022-09-23T06:24:26;8.60;99.90
57833;DHT22;43667;53.036;6.740;2022-09-23T06:26:52;8.70;99.90
57833;DHT22;43667;53.036;6.740;2022-09-23T06:29:17;8.90;99.90
57833;DHT22;43667;53.036;6.740;2022-09-23T06:31:43;9.00;99.90
57833;DHT22;43667;53.036;6.740;2022-09-23T06:34:10;9.00;99.90
57833;DHT22;43667;53.036;6.740;2022-09-23T06:36:36;9.20;99.90
57833;DHT22;43667;53.036;6.740;2022-09-23T06:39:02;9.30;99.90
57833;DHT22;43667;53.036;6.740;2022-09-23T06:41:28;9.40;99.90
57833;DHT22;43667;53.036;6.740;2022-09-23T06:43:53;9.60;99.90
57833;DHT22;43667;53.036;6.740;2022-09-23T06:46:19;9.70;99.90
57833;DHT22;43667;53.036;6.740;2022-09-23T06:48:45;9.90;99.90
57833;DHT22;43667;53.036;6.740;2022-09-23T06:51:12;10.00;99.90
57833;DHT22;43667;53.036;6.740;2022-09-23T06:53:44;10.10;99.90
57833;DHT22;43667;53.036;6.740;2022-09-23T06:56:10;10.30;99.90
57833;DHT22;43667;53.036;6.740;2022-09-23T06:58:36;10.40;99.90
57833;DHT22;43667;53.036;6.740;2022-09-23T07:01:11;10.50;99.90
57833;DHT22;43667;53.036;6.740;2022-09-23T07:03:37;10.60;99.90
57833;DHT22;43667;53.036;6.740;2022-09-23T07:06:04;10.70;99.90
57833;DHT22;43667;53.036;6.740;2022-09-23T07:08:30;10.70;99.90
57833;DHT22;43667;53.036;6.740;2022-09-23T07:11:00;10.80;99.90
57833;DHT22;43667;53.036;6.740;2022-09-23T07:13:27;10.90;99.90
57833;DHT22;43667;53.036;6.740;2022-09-23T07:15:55;11.00;99.90
57833;DHT22;43667;53.036;6.740;2022-09-23T07:18:24;11.00;99.90
57833;DHT22;43667;53.036;6.740;2022-09-23T07:20:51;11.10;99.90
57833;DHT22;43667;53.036;6.740;2022-09-23T07:23:17;11.20;99.90
57833;DHT22;43667;53.036;6.740;2022-09-23T07:25:46;11.20;99.90
57833;DHT22;43667;53.036;6.740;2022-09-23T07:28:14;11.30;99.90
57833;DHT22;43667;53.036;6.740;2022-09-23T07:30:40;11.40;99.90
57833;DHT22;43667;53.036;6.740;2022-09-23T07:33:06;11.40;99.90
57833;DHT22;43667;53.036;6.740;2022-09-23T07:35:32;11.50;99.90
57833;DHT22;43667;53.036;6.740;2022-09-23T07:37:58;11.50;99.90
57833;DHT22;43667;53.036;6.740;2022-09-23T07:40:24;11.60;99.90
57833;DHT22;43667;53.036;6.740;2022-09-23T07:42:49;11.70;99.90
57833;DHT22;43667;53.036;6.740;2022-09-23T07:45:15;11.80;99.90
57833;DHT22;43667;53.036;6.740;2022-09-23T07:47:41;11.80;99.90
57833;DHT22;43667;53.036;6.740;2022-09-23T07:50:08;11.80;99.90
57833;DHT22;43667;53.036;6.740;2022-09-23T07:52:36;11.90;99.90
57833;DHT22;43667;53.036;6.740;2022-09-23T07:55:03;11.90;99.90
57833;DHT22;43667;53.036;6.740;2022-09-23T07:57:29;12.00;99.90
57833;DHT22;43667;53.036;6.740;2022-09-23T07:59:55;12.00;99.90
57833;DHT22;43667;53.036;6.740;2022-09-23T08:02:21;12.10;99.90
57833;DHT22;43667;53.036;6.740;2022-09-23T08:04:48;12.20;99.90
57833;DHT22;43667;53.036;6.740;2022-09-23T08:07:13;12.20;99.90
57833;DHT22;43667;53.036;6.740;2022-09-23T08:09:41;12.30;99.90
57833;DHT22;43667;53.036;6.740;2022-09-23T08:12:09;12.40;99.90
57833;DHT22;43667;53.036;6.740;2022-09-23T08:14:34;12.40;99.90
57833;DHT22;43667;53.036;6.740;2022-09-23T08:17:00;12.50;99.90
57833;DHT22;43667;53.036;6.740;2022-09-23T08:19:26;12.60;99.90
57833;DHT22;43667;53.036;6.740;2022-09-23T08:21:51;12.60;99.90
57833;DHT22;43667;53.036;6.740;2022-09-23T08:24:18;12.70;99.90
57833;DHT22;43667;53.036;6.740;2022-09-23T08:26:46;12.80;99.90
57833;DHT22;43667;53.036;6.740;2022-09-23T08:29:15;12.90;99.90
57833;DHT22;43667;53.036;6.740;2022-09-23T08:31:42;12.90;99.90
57833;DHT22;43667;53.036;6.740;2022-09-23T08:34:08;13.00;99.90
57833;DHT22;43667;53.036;6.740;2022-09-23T08:36:34;13.10;99.90
57833;DHT22;43667;53.036;6.740;2022-09-23T08:39:00;13.10;99.90
57833;DHT22;43667;53.036;6.740;2022-09-23T08:41:37;13.20;99.90
57833;DHT22;43667;53.036;6.740;2022-09-23T08:44:16;13.30;99.90
57833;DHT22;43667;53.036;6.740;2022-09-23T08:46:51;13.40;99.90
57833;DHT22;43667;53.036;6.740;2022-09-23T08:49:26;13.60;99.90
57833;DHT22;43667;53.036;6.740;2022-09-23T08:51:55;13.70;99.90
57833;DHT22;43667;53.036;6.740;2022-09-23T08:54:21;13.80;99.90
57833;DHT22;43667;53.036;6.740;2022-09-23T08:56:49;13.90;99.90
57833;DHT22;43667;53.036;6.740;2022-09-23T08:59:25;14.00;99.90
57833;DHT22;43667;53.036;6.740;2022-09-23T09:02:04;14.10;99.90
57833;DHT22;43667;53.036;6.740;2022-09-23T09:04:39;14.30;99.90
57833;DHT22;43667;53.036;6.740;2022-09-23T09:09:36;14.60;99.90
57833;DHT22;43667;53.036;6.740;2022-09-23T09:15:08;14.90;99.90
57833;DHT22;43667;53.036;6.740;2022-09-23T09:17:46;14.90;99.90
57833;DHT22;43667;53.036;6.740;2022-09-23T09:25:56;15.10;99.90
57833;DHT22;43667;53.036;6.740;2022-09-23T09:28:32;15.10;99.90
57833;DHT22;43667;53.036;6.740;2022-09-23T09:31:15;15.20;99.90
57833;DHT22;43667;53.036;6.740;2022-09-23T09:34:01;15.20;99.90
57833;DHT22;43667;53.036;6.740;2022-09-23T09:36:38;15.30;99.90
57833;DHT22;43667;53.036;6.740;2022-09-23T09:39:11;15.30;99.90
57833;DHT22;43667;53.036;6.740;2022-09-23T09:41:39;15.40;99.90
57833;DHT22;43667;53.036;6.740;2022-09-23T09:44:24;15.40;99.90
57833;DHT22;43667;53.036;6.740;2022-09-23T09:47:16;15.40;99.90
57833;DHT22;43667;53.036;6.740;2022-09-23T09:49:56;15.40;99.90
57833;DHT22;43667;53.036;6.740;2022-09-23T09:52:27;15.40;99.90
57833;DHT22;43667;53.036;6.740;2022-09-23T09:54:55;15.30;99.90
57833;DHT22;43667;53.036;6.740;2022-09-23T09:57:47;15.30;99.90
57833;DHT22;43667;53.036;6.740;2022-09-23T10:02:57;15.40;99.90
57833;DHT22;43667;53.036;6.740;2022-09-23T10:05:47;15.50;99.90
57833;DHT22;43667;53.036;6.740;2022-09-23T10:08:34;15.50;99.90
57833;DHT22;43667;53.036;6.740;2022-09-23T10:11:20;15.50;99.90
57833;DHT22;43667;53.036;6.740;2022-09-23T10:16:37;15.60;99.90
57833;DHT22;43667;53.036;6.740;2022-09-23T10:19:25;15.80;99.90
57833;DHT22;43667;53.036;6.740;2022-09-23T10:21:57;15.80;99.90
57833;DHT22;43667;53.036;6.740;2022-09-23T10:24:33;15.90;99.90
57833;DHT22;43667;53.036;6.740;2022-09-23T10:27:07;15.80;99.90
57833;DHT22;43667;53.036;6.740;2022-09-23T10:32:27;15.80;99.90
57833;DHT22;43667;53.036;6.740;2022-09-23T10:35:10;15.90;99.90
57833;DHT22;43667;53.036;6.740;2022-09-23T10:37:50;15.90;99.90
57833;DHT22;43667;53.036;6.740;2022-09-23T10:40:23;15.90;99.90
57833;DHT22;43667;53.036;6.740;2022-09-23T10:46:40;16.10;99.90
57833;DHT22;43667;53.036;6.740;2022-09-23T10:49:41;16.20;99.90
57833;DHT22;43667;53.036;6.740;2022-09-23T10:55:39;16.40;99.90
57833;DHT22;43667;53.036;6.740;2022-09-23T11:06:49;16.50;99.90
57833;DHT22;43667;53.036;6.740;2022-09-23T11:09:36;16.50;99.90
57833;DHT22;43667;53.036;6.740;2022-09-23T11:20:59;16.80;99.90
57833;DHT22;43667;53.036;6.740;2022-09-23T11:23:42;16.80;99.90
57833;DHT22;43667;53.036;6.740;2022-09-23T11:26:19;16.90;99.90
57833;DHT22;43667;53.036;6.740;2022-09-23T11:36:56;17.00;99.90
57833;DHT22;43667;53.036;6.740;2022-09-23T11:39:29;16.90;99.90
57833;DHT22;43667;53.036;6.740;2022-09-23T11:41:58;17.00;99.90
57833;DHT22;43667;53.036;6.740;2022-09-23T11:44:38;17.00;99.90
57833;DHT22;43667;53.036;6.740;2022-09-23T11:47:09;17.00;99.90
57833;DHT22;43667;53.036;6.740;2022-09-23T11:52:50;16.90;99.90
57833;DHT22;43667;53.036;6.740;2022-09-23T11:55:23;16.90;99.90
57833;DHT22;43667;53.036;6.740;2022-09-23T11:57:56;16.90;99.90
57833;DHT22;43667;53.036;6.740;2022-09-23T12:00:29;16.90;99.90
57833;DHT22;43667;53.036;6.740;2022-09-23T12:05:40;17.00;99.90
57833;DHT22;43667;53.036;6.740;2022-09-23T12:08:28;16.90;99.90
57833;DHT22;43667;53.036;6.740;2022-09-23T12:13:36;16.90;99.90
57833;DHT22;43667;53.036;6.740;2022-09-23T12:19:23;16.90;99.90
57833;DHT22;43667;53.036;6.740;2022-09-23T12:22:55;16.90;99.90
57833;DHT22;43667;53.036;6.740;2022-09-23T12:28:17;17.00;99.90
57833;DHT22;43667;53.036;6.740;2022-09-23T12:30:45;17.00;99.90
57833;DHT22;43667;53.036;6.740;2022-09-23T12:35:42;17.00;99.90
57833;DHT22;43667;53.036;6.740;2022-09-23T12:38:34;17.10;99.90
57833;DHT22;43667;53.036;6.740;2022-09-23T12:41:02;17.10;99.90
57833;DHT22;43667;53.036;6.740;2022-09-23T12:43:53;17.00;99.90
57833;DHT22;43667;53.036;6.740;2022-09-23T12:46:26;17.00;99.90
57833;DHT22;43667;53.036;6.740;2022-09-23T12:48:59;17.00;99.90
57833;DHT22;43667;53.036;6.740;2022-09-23T12:51:26;17.00;99.90
57833;DHT22;43667;53.036;6.740;2022-09-23T12:59:13;17.00;99.90
57833;DHT22;43667;53.036;6.740;2022-09-23T13:01:44;17.00;99.90
57833;DHT22;43667;53.036;6.740;2022-09-23T13:07:54;17.00;99.90
57833;DHT22;43667;53.036;6.740;2022-09-23T13:10:29;17.00;99.90
57833;DHT22;43667;53.036;6.740;2022-09-23T13:12:58;17.00;99.90
57833;DHT22;43667;53.036;6.740;2022-09-23T13:15:34;17.00;99.90
57833;DHT22;43667;53.036;6.740;2022-09-23T13:20:48;17.20;99.90
57833;DHT22;43667;53.036;6.740;2022-09-23T13:23:25;17.20;99.90
57833;DHT22;43667;53.036;6.740;2022-09-23T13:25:54;17.20;99.90
57833;DHT22;43667;53.036;6.740;2022-09-23T13:28:36;17.20;99.90
57833;DHT22;43667;53.036;6.740;2022-09-23T13:31:05;17.20;99.90
57833;DHT22;43667;53.036;6.740;2022-09-23T13:33:51;17.20;99.90
57833;DHT22;43667;53.036;6.740;2022-09-23T13:36:19;17.20;99.90
57833;DHT22;43667;53.036;6.740;2022-09-23T13:38:45;17.10;99.90
57833;DHT22;43667;53.036;6.740;2022-09-23T13:41:22;17.10;99.90
57833;DHT22;43667;53.036;6.740;2022-09-23T13:43:54;17.10;99.90
57833;DHT22;43667;53.036;6.740;2022-09-23T13:46:41;17.00;99.90
57833;DHT22;43667;53.036;6.740;2022-09-23T13:49:23;17.00;99.90
57833;DHT22;43667;53.036;6.740;2022-09-23T13:51:51;16.90;99.90
57833;DHT22;43667;53.036;6.740;2022-09-23T13:54:29;16.90;99.90
57833;DHT22;43667;53.036;6.740;2022-09-23T13:56:56;16.80;99.90
57833;DHT22;43667;53.036;6.740;2022-09-23T13:59:29;16.80;99.90
57833;DHT22;43667;53.036;6.740;2022-09-23T14:02:12;16.80;99.90
57833;DHT22;43667;53.036;6.740;2022-09-23T14:04:38;16.80;99.90
57833;DHT22;43667;53.036;6.740;2022-09-23T14:07:06;16.70;99.90
57833;DHT22;43667;53.036;6.740;2022-09-23T14:09:33;16.70;99.90
57833;DHT22;43667;53.036;6.740;2022-09-23T14:12:01;16.60;99.90
57833;DHT22;43667;53.036;6.740;2022-09-23T14:14:28;16.60;99.90
57833;DHT22;43667;53.036;6.740;2022-09-23T14:16:55;16.50;99.90
57833;DHT22;43667;53.036;6.740;2022-09-23T14:19:23;16.50;99.90
57833;DHT22;43667;53.036;6.740;2022-09-23T14:21:51;16.40;99.90
57833;DHT22;43667;53.036;6.740;2022-09-23T14:24:18;16.40;99.90
57833;DHT22;43667;53.036;6.740;2022-09-23T14:26:58;16.40;99.90
57833;DHT22;43667;53.036;6.740;2022-09-23T14:29:34;16.40;99.90
57833;DHT22;43667;53.036;6.740;2022-09-23T14:32:06;16.30;99.90
57833;DHT22;43667;53.036;6.740;2022-09-23T14:34:45;16.30;99.90
57833;DHT22;43667;53.036;6.740;2022-09-23T14:39:59;16.30;99.90
57833;DHT22;43667;53.036;6.740;2022-09-23T14:42:25;16.30;99.90
57833;DHT22;43667;53.036;6.740;2022-09-23T14:44:52;16.30;99.90
57833;DHT22;43667;53.036;6.740;2022-09-23T14:47:18;16.30;99.90
57833;DHT22;43667;53.036;6.740;2022-09-23T14:49:50;16.30;99.90
57833;DHT22;43667;53.036;6.740;2022-09-23T14:52:34;16.40;99.90
57833;DHT22;43667;53.036;6.740;2022-09-23T14:54:59;16.40;99.90
57833;DHT22;43667;53.036;6.740;2022-09-23T14:57:29;16.30;99.90
57833;DHT22;43667;53.036;6.740;2022-09-23T15:00:06;16.30;99.90
57833;DHT22;43667;53.036;6.740;2022-09-23T15:02:40;16.30;99.90
57833;DHT22;43667;53.036;6.740;2022-09-23T15:05:10;16.30;99.90
57833;DHT22;43667;53.036;6.740;2022-09-23T15:07:39;16.20;99.90
57833;DHT22;43667;53.036;6.740;2022-09-23T15:10:15;16.20;99.90
57833;DHT22;43667;53.036;6.740;2022-09-23T15:12:45;16.30;99.90
57833;DHT22;43667;53.036;6.740;2022-09-23T15:15:12;16.20;99.90
57833;DHT22;43667;53.036;6.740;2022-09-23T15:17:39;16.20;99.90
57833;DHT22;43667;53.036;6.740;2022-09-23T15:20:23;16.30;99.90
57833;DHT22;43667;53.036;6.740;2022-09-23T15:22:53;16.20;99.90
57833;DHT22;43667;53.036;6.740;2022-09-23T15:25:29;16.20;99.90
57833;DHT22;43667;53.036;6.740;2022-09-23T15:30:21;16.20;99.90
57833;DHT22;43667;53.036;6.740;2022-09-23T15:32:47;16.10;99.90
57833;DHT22;43667;53.036;6.740;2022-09-23T15:35:17;16.10;99.90
57833;DHT22;43667;53.036;6.740;2022-09-23T15:37:44;16.00;99.90
57833;DHT22;43667;53.036;6.740;2022-09-23T15:40:26;16.00;99.90
57833;DHT22;43667;53.036;6.740;2022-09-23T15:42:57;16.00;99.90
57833;DHT22;43667;53.036;6.740;2022-09-23T15:45:32;16.00;99.90
57833;DHT22;43667;53.036;6.740;2022-09-23T15:48:03;16.00;99.90
57833;DHT22;43667;53.036;6.740;2022-09-23T15:50:35;15.90;99.90
57833;DHT22;43667;53.036;6.740;2022-09-23T15:53:02;15.90;99.90
57833;DHT22;43667;53.036;6.740;2022-09-23T15:55:27;15.80;99.90
57833;DHT22;43667;53.036;6.740;2022-09-23T15:57:53;15.80;99.90
57833;DHT22;43667;53.036;6.740;2022-09-23T16:00:18;15.90;99.90
57833;DHT22;43667;53.036;6.740;2022-09-23T16:02:46;15.90;99.90
57833;DHT22;43667;53.036;6.740;2022-09-23T16:05:27;15.80;99.90
57833;DHT22;43667;53.036;6.740;2022-09-23T16:07:58;15.80;99.90
57833;DHT22;43667;53.036;6.740;2022-09-23T16:10:25;15.70;99.90
57833;DHT22;43667;53.036;6.740;2022-09-23T16:12:52;15.80;99.90
57833;DHT22;43667;53.036;6.740;2022-09-23T16:15:20;15.70;99.90
57833;DHT22;43667;53.036;6.740;2022-09-23T16:17:46;15.70;99.90
57833;DHT22;43667;53.036;6.740;2022-09-23T16:20:12;15.70;99.90
57833;DHT22;43667;53.036;6.740;2022-09-23T16:23:03;15.60;99.90
57833;DHT22;43667;53.036;6.740;2022-09-23T16:25:29;15.60;99.90
57833;DHT22;43667;53.036;6.740;2022-09-23T16:27:56;15.60;99.90
57833;DHT22;43667;53.036;6.740;2022-09-23T16:30:26;15.50;99.90
57833;DHT22;43667;53.036;6.740;2022-09-23T16:32:53;15.50;99.90
57833;DHT22;43667;53.036;6.740;2022-09-23T16:35:20;15.40;99.90
57833;DHT22;43667;53.036;6.740;2022-09-23T16:37:46;15.40;99.90
57833;DHT22;43667;53.036;6.740;2022-09-23T16:40:14;15.30;99.90
57833;DHT22;43667;53.036;6.740;2022-09-23T16:42:48;15.30;99.90
57833;DHT22;43667;53.036;6.740;2022-09-23T16:45:15;15.30;99.90
57833;DHT22;43667;53.036;6.740;2022-09-23T16:47:43;15.20;99.90
57833;DHT22;43667;53.036;6.740;2022-09-23T16:50:10;15.20;99.90
57833;DHT22;43667;53.036;6.740;2022-09-23T16:52:36;15.20;99.90
57833;DHT22;43667;53.036;6.740;2022-09-23T16:55:03;15.10;99.90
57833;DHT22;43667;53.036;6.740;2022-09-23T16:57:28;15.10;99.90
57833;DHT22;43667;53.036;6.740;2022-09-23T16:59:54;15.10;99.90
57833;DHT22;43667;53.036;6.740;2022-09-23T17:02:38;15.10;99.90
57833;DHT22;43667;53.036;6.740;2022-09-23T17:05:26;15.00;99.90
57833;DHT22;43667;53.036;6.740;2022-09-23T17:07:55;15.00;99.90
57833;DHT22;43667;53.036;6.740;2022-09-23T17:10:20;14.90;99.90
57833;DHT22;43667;53.036;6.740;2022-09-23T17:12:46;14.90;99.90
57833;DHT22;43667;53.036;6.740;2022-09-23T17:15:12;14.90;99.90
57833;DHT22;43667;53.036;6.740;2022-09-23T17:17:37;14.90;99.90
57833;DHT22;43667;53.036;6.740;2022-09-23T17:20:04;14.80;99.90
57833;DHT22;43667;53.036;6.740;2022-09-23T17:22:31;14.80;99.90
57833;DHT22;43667;53.036;6.740;2022-09-23T17:24:58;14.80;99.90
57833;DHT22;43667;53.036;6.740;2022-09-23T17:27:25;14.80;99.90
57833;DHT22;43667;53.036;6.740;2022-09-23T17:29:50;14.70;99.90
57833;DHT22;43667;53.036;6.740;2022-09-23T17:32:16;14.70;99.90
57833;DHT22;43667;53.036;6.740;2022-09-23T17:34:42;14.60;99.90
57833;DHT22;43667;53.036;6.740;2022-09-23T17:37:08;14.60;99.90
57833;DHT22;43667;53.036;6.740;2022-09-23T17:39:34;14.60;99.90
57833;DHT22;43667;53.036;6.740;2022-09-23T17:42:00;14.60;99.90
57833;DHT22;43667;53.036;6.740;2022-09-23T17:44:26;14.50;99.90
57833;DHT22;43667;53.036;6.740;2022-09-23T17:46:51;14.50;99.90
57833;DHT22;43667;53.036;6.740;2022-09-23T17:49:17;14.50;99.90
57833;DHT22;43667;53.036;6.740;2022-09-23T17:51:43;14.50;99.90
57833;DHT22;43667;53.036;6.740;2022-09-23T17:54:08;14.40;99.90
57833;DHT22;43667;53.036;6.740;2022-09-23T17:56:35;14.40;99.90
57833;DHT22;43667;53.036;6.740;2022-09-23T17:59:01;14.40;99.90
57833;DHT22;43667;53.036;6.740;2022-09-23T18:01:27;14.40;99.90